Time;durP1;ratioP1;P1;durP2;ratioP2;P2;SDS_P1;SDS_P2;PMS_P1;PMS_P2;Temp;Humidity;BMP_temperature;BMP_pressure;BME280_temperature;BME280_humidity;BME280_pressure;Samples;Min_cycle;Max_cycle;Signal;HPM_P1;HPM_P2
2022/10/27 00:01:56;;;;;;;4.5;3.3;;;;;;;;;;;;;
2022/10/27 00:04:21;;;;;;;6.2;3.2;;;;;;;;;;;;;
2022/10/27 00:06:47;;;;;;;6.1;3;;;;;;;;;;;;;
2022/10/27 00:09:12;;;;;;;4.7;3.2;;;;;;;;;;;;;
2022/10/27 00:11:38;;;;;;;4.6;2.9;;;;;;;;;;;;;
2022/10/27 00:14:05;;;;;;;7.5;3.4;;;;;;;;;;;;;
2022/10/27 00:16:30;;;;;;;5.1;3.1;;;;;;;;;;;;;
2022/10/27 00:18:57;;;;;;;6.4;3.2;;;;;;;;;;;;;
2022/10/27 00:21:23;;;;;;;4.8;3;;;;;;;;;;;;;
2022/10/27 00:23:48;;;;;;;9.6;3.2;;;;;;;;;;;;;
2022/10/27 00:26:13;;;;;;;5.9;3.3;;;;;;;;;;;;;
2022/10/27 00:28:40;;;;;;;6.1;3.1;;;;;;;;;;;;;
2022/10/27 00:31:05;;;;;;;6.8;3.2;;;;;;;;;;;;;
2022/10/27 00:33:30;;;;;;;8.8;3.6;;;;;;;;;;;;;
2022/10/27 00:35:58;;;;;;;4.1;2.9;;;;;;;;;;;;;
2022/10/27 00:38:24;;;;;;;6.4;2.8;;;;;;;;;;;;;
2022/10/27 00:40:49;;;;;;;6;2.8;;;;;;;;;;;;;
2022/10/27 00:43:14;;;;;;;4.8;2.7;;;;;;;;;;;;;
2022/10/27 00:45:41;;;;;;;6;2.7;;;;;;;;;;;;;
2022/10/27 00:48:06;;;;;;;4.4;2.6;;;;;;;;;;;;;
2022/10/27 00:50:34;;;;;;;6;3.1;;;;;;;;;;;;;
2022/10/27 00:52:59;;;;;;;7.2;2.9;;;;;;;;;;;;;
2022/10/27 00:55:25;;;;;;;6.2;2.7;;;;;;;;;;;;;
2022/10/27 00:57:50;;;;;;;5.2;2.8;;;;;;;;;;;;;
2022/10/27 01:00:16;;;;;;;3.5;2.7;;;;;;;;;;;;;
2022/10/27 01:02:43;;;;;;;6.1;2.8;;;;;;;;;;;;;
2022/10/27 01:05:08;;;;;;;4.4;2.9;;;;;;;;;;;;;
2022/10/27 01:07:33;;;;;;;5.4;2.6;;;;;;;;;;;;;
2022/10/27 01:09:59;;;;;;;6.3;2.9;;;;;;;;;;;;;
2022/10/27 01:12:24;;;;;;;8.3;3.3;;;;;;;;;;;;;
2022/10/27 01:14:50;;;;;;;5.7;3;;;;;;;;;;;;;
2022/10/27 01:17:15;;;;;;;5.3;2.6;;;;;;;;;;;;;
2022/10/27 01:19:41;;;;;;;4.6;2.9;;;;;;;;;;;;;
2022/10/27 01:22:06;;;;;;;5.7;2.7;;;;;;;;;;;;;
2022/10/27 01:24:31;;;;;;;4.6;2.9;;;;;;;;;;;;;
2022/10/27 01:26:56;;;;;;;6.2;2.7;;;;;;;;;;;;;
2022/10/27 01:29:23;;;;;;;5.6;2.7;;;;;;;;;;;;;
2022/10/27 01:31:48;;;;;;;6.6;2.9;;;;;;;;;;;;;
2022/10/27 01:34:13;;;;;;;6.7;2.6;;;;;;;;;;;;;
2022/10/27 01:36:38;;;;;;;5.3;2.5;;;;;;;;;;;;;
2022/10/27 01:39:03;;;;;;;3.8;2.6;;;;;;;;;;;;;
2022/10/27 01:41:28;;;;;;;5.1;2.5;;;;;;;;;;;;;
2022/10/27 01:43:53;;;;;;;5.4;2.7;;;;;;;;;;;;;
2022/10/27 01:46:18;;;;;;;5.7;2.8;;;;;;;;;;;;;
2022/10/27 01:48:45;;;;;;;3.7;2.7;;;;;;;;;;;;;
2022/10/27 01:51:10;;;;;;;4.9;3;;;;;;;;;;;;;
2022/10/27 01:53:36;;;;;;;6.2;3.2;;;;;;;;;;;;;
2022/10/27 01:56:01;;;;;;;4.3;2.8;;;;;;;;;;;;;
2022/10/27 01:58:26;;;;;;;5.2;2.9;;;;;;;;;;;;;
2022/10/27 02:00:52;;;;;;;4.7;2.9;;;;;;;;;;;;;
2022/10/27 02:03:17;;;;;;;4.8;2.7;;;;;;;;;;;;;
2022/10/27 02:05:42;;;;;;;5.4;3;;;;;;;;;;;;;
2022/10/27 02:08:07;;;;;;;4.4;2.8;;;;;;;;;;;;;
2022/10/27 02:10:32;;;;;;;6;3.7;;;;;;;;;;;;;
2022/10/27 02:12:57;;;;;;;6.4;2.8;;;;;;;;;;;;;
2022/10/27 02:15:26;;;;;;;5.2;3;;;;;;;;;;;;;
2022/10/27 02:17:51;;;;;;;4.5;2.7;;;;;;;;;;;;;
2022/10/27 02:20:16;;;;;;;5.8;2.7;;;;;;;;;;;;;
2022/10/27 02:22:41;;;;;;;4;2.6;;;;;;;;;;;;;
2022/10/27 02:25:12;;;;;;;5.4;3.3;;;;;;;;;;;;;
2022/10/27 02:27:38;;;;;;;5.6;2.7;;;;;;;;;;;;;
2022/10/27 02:30:04;;;;;;;6.4;2.4;;;;;;;;;;;;;
2022/10/27 02:32:35;;;;;;;5.9;2.6;;;;;;;;;;;;;
2022/10/27 02:35:03;;;;;;;4.1;2.5;;;;;;;;;;;;;
2022/10/27 02:37:27;;;;;;;3.9;2.8;;;;;;;;;;;;;
2022/10/27 02:39:52;;;;;;;6.8;2.8;;;;;;;;;;;;;
2022/10/27 02:42:17;;;;;;;5.2;2.7;;;;;;;;;;;;;
2022/10/27 02:44:42;;;;;;;4.1;2.5;;;;;;;;;;;;;
2022/10/27 02:47:07;;;;;;;6.1;3.2;;;;;;;;;;;;;
2022/10/27 02:49:32;;;;;;;4.7;2.3;;;;;;;;;;;;;
2022/10/27 02:51:58;;;;;;;5;2.6;;;;;;;;;;;;;
2022/10/27 02:54:23;;;;;;;3.9;2.8;;;;;;;;;;;;;
2022/10/27 02:56:48;;;;;;;7.4;2.7;;;;;;;;;;;;;
2022/10/27 02:59:14;;;;;;;4.7;2.7;;;;;;;;;;;;;
2022/10/27 03:01:39;;;;;;;6.9;2.7;;;;;;;;;;;;;
2022/10/27 03:04:04;;;;;;;5.3;3.1;;;;;;;;;;;;;
2022/10/27 03:06:29;;;;;;;3.5;3;;;;;;;;;;;;;
2022/10/27 03:08:54;;;;;;;5.2;2.9;;;;;;;;;;;;;
2022/10/27 03:11:19;;;;;;;6.2;3;;;;;;;;;;;;;
2022/10/27 03:13:46;;;;;;;4.6;2.5;;;;;;;;;;;;;
2022/10/27 03:16:11;;;;;;;3.7;2.5;;;;;;;;;;;;;
2022/10/27 03:18:37;;;;;;;5.9;2.8;;;;;;;;;;;;;
2022/10/27 03:21:05;;;;;;;6.5;2.4;;;;;;;;;;;;;
2022/10/27 03:23:29;;;;;;;3.7;2.4;;;;;;;;;;;;;
2022/10/27 03:25:55;;;;;;;6.2;3.6;;;;;;;;;;;;;
2022/10/27 03:28:20;;;;;;;8.2;4.3;;;;;;;;;;;;;
2022/10/27 03:30:45;;;;;;;8.1;3.5;;;;;;;;;;;;;
2022/10/27 03:33:10;;;;;;;6.2;3.7;;;;;;;;;;;;;
2022/10/27 03:35:36;;;;;;;5.4;3.8;;;;;;;;;;;;;
2022/10/27 03:38:01;;;;;;;10.9;4.3;;;;;;;;;;;;;
2022/10/27 03:40:26;;;;;;;7.4;5;;;;;;;;;;;;;
2022/10/27 03:42:52;;;;;;;8.1;4.2;;;;;;;;;;;;;
2022/10/27 03:45:19;;;;;;;6.5;4;;;;;;;;;;;;;
2022/10/27 03:47:44;;;;;;;7.5;3.8;;;;;;;;;;;;;
2022/10/27 03:50:11;;;;;;;5.5;2.9;;;;;;;;;;;;;
2022/10/27 03:52:36;;;;;;;4.3;2.8;;;;;;;;;;;;;
2022/10/27 03:55:02;;;;;;;4.3;2.2;;;;;;;;;;;;;
2022/10/27 03:57:42;;;;;;;5.3;2.8;;;;;;;;;;;;;
2022/10/27 03:59:52;;;;;;;5.9;3;;;;;;;;;;;;;
2022/10/27 04:02:33;;;;;;;5.1;2.8;;;;;;;8.47;100;947.0126;;;;
2022/10/27 04:05:04;;;;;;;6.4;3.4;;;;;;;8.56;100;946.9875;;;;
2022/10/27 04:08:27;;;;;;;5.5;2.5;;;;;;;8.69;100;947.029;;;;
2022/10/27 04:10:52;;;;;;;6.7;3;;;;;;;8.77;100;947.0385;;;;
2022/10/27 04:28:38;;;;;;;9.1;4.7;;;;;;;8.42;100;947.0061;;;;
2022/10/27 04:31:08;;;;;;;5.5;2.8;;;;;;;8.29;100;947.0298;;;;
2022/10/27 04:34:27;;;;;;;6.4;2.8;;;;;;;8.26;100;947.0363;;;;
2022/10/27 04:36:59;;;;;;;5.5;2.5;;;;;;;8.17;100;947.037;;;;
2022/10/27 04:39:29;;;;;;;6.8;2.7;;;;;;;8.38;100;947.026;;;;
2022/10/27 04:41:54;;;;;;;7.5;3;;;;;;;8.29;100;947.0815;;;;
2022/10/27 04:44:19;;;;;;;4.8;2.8;;;;;;;8.37;100;947.0767;;;;
2022/10/27 04:46:44;;;;;;;6.8;3.6;;;;;;;8.42;100;947.0618;;;;
2022/10/27 04:49:12;;;;;;;6.3;3.6;;;;;;;8.41;100;947.1006;;;;
2022/10/27 04:51:37;;;;;;;6.8;4;;;;;;;8.38;100;947.0911;;;;
2022/10/27 04:54:05;;;;;;;9;3.8;;;;;;;8.35;100;947.1702;;;;
2022/10/27 04:56:30;;;;;;;4.6;3.2;;;;;;;8.16;100;947.192;;;;
2022/10/27 04:58:56;;;;;;;5.1;3.2;;;;;;;8.27;100;947.1434;;;;
2022/10/27 05:01:23;;;;;;;6.5;3.4;;;;;;;8.41;100;947.1522;;;;
2022/10/27 05:06:19;;;;;;;7.3;3.6;;;;;;;8.16;100;947.1231;;;;
2022/10/27 05:08:55;;;;;;;6.3;3.8;;;;;;;8.08;100;947.2126;;;;
2022/10/27 05:11:24;;;;;;;6.3;3.7;;;;;;;7.99;100;947.2241;;;;
2022/10/27 05:13:49;;;;;;;5;3.3;;;;;;;7.99;100;947.1853;;;;
2022/10/27 05:16:21;;;;;;;8.1;4.1;;;;;;;8.09;100;947.1675;;;;
2022/10/27 05:18:51;;;;;;;9.9;4.3;;;;;;;8.01;100;947.2008;;;;
2022/10/27 05:21:16;;;;;;;7.1;4.4;;;;;;;8.07;100;947.1954;;;;
2022/10/27 05:23:47;;;;;;;10.2;5.1;;;;;;;8.05;100;947.2512;;;;
2022/10/27 05:26:18;;;;;;;8.9;4.5;;;;;;;8.02;100;947.1644;;;;
2022/10/27 05:28:48;;;;;;;7.6;3.6;;;;;;;8.11;100;947.2357;;;;
2022/10/27 05:31:13;;;;;;;7.7;3.6;;;;;;;8.05;100;947.247;;;;
2022/10/27 05:33:43;;;;;;;7.9;4.5;;;;;;;7.98;100;947.2643;;;;
2022/10/27 05:36:16;;;;;;;11.2;4.8;;;;;;;8.05;100;947.2417;;;;
2022/10/27 05:38:41;;;;;;;8.6;4.2;;;;;;;8.19;100;947.1978;;;;
2022/10/27 05:41:08;;;;;;;8.3;4.3;;;;;;;8.31;100;947.1996;;;;
2022/10/27 05:43:33;;;;;;;7.6;4;;;;;;;8.4;99.78418;947.2416;;;;
2022/10/27 05:46:03;;;;;;;7.6;4.3;;;;;;;8.4;98.90039;947.1894;;;;
2022/10/27 05:48:29;;;;;;;7.9;3.6;;;;;;;8.26;99.43457;947.2281;;;;
2022/10/27 05:50:54;;;;;;;7.8;3.5;;;;;;;8.29;99.89746;947.1863;;;;
2022/10/27 05:53:22;;;;;;;7.2;3.1;;;;;;;8.35;100;947.2028;;;;
2022/10/27 05:55:47;;;;;;;5.2;2.8;;;;;;;8.41;100;947.2034;;;;
2022/10/27 05:58:13;;;;;;;10.1;3.6;;;;;;;8.53;100;947.2747;;;;
2022/10/27 06:00:38;;;;;;;4.8;2.5;;;;;;;8.44;100;947.2838;;;;
2022/10/27 06:03:07;;;;;;;8;2.6;;;;;;;8.46;100;947.3019;;;;
2022/10/27 06:05:32;;;;;;;5.4;2.7;;;;;;;8.47;99.90332;947.3149;;;;
2022/10/27 06:07:58;;;;;;;12.5;4.8;;;;;;;8.38;99.44141;947.3063;;;;
2022/10/27 06:10:23;;;;;;;17.6;7.5;;;;;;;8.35;99.6377;947.3542;;;;
2022/10/27 06:12:51;;;;;;;20.9;9;;;;;;;8.27;100;947.4238;;;;
2022/10/27 06:15:16;;;;;;;17.5;8.6;;;;;;;8.45;99.80859;947.4333;;;;
2022/10/27 06:17:48;;;;;;;15.6;7.5;;;;;;;8.47;99.25586;947.4403;;;;
2022/10/27 06:20:45;;;;;;;11.6;6;;;;;;;8.59;98.76172;947.4377;;;;
2022/10/27 06:23:16;;;;;;;16.9;7.6;;;;;;;8.59;97.85254;947.4775;;;;
2022/10/27 06:25:47;;;;;;;14.7;7.9;;;;;;;8.63;97.18848;947.5209;;;;
2022/10/27 06:28:15;;;;;;;13.7;6.9;;;;;;;8.56;97.19824;947.4846;;;;
2022/10/27 06:30:40;;;;;;;12.2;6.1;;;;;;;8.54;97.5332;947.5878;;;;
2022/10/27 06:33:05;;;;;;;12.3;5.1;;;;;;;8.7;97.92285;947.5733;;;;
2022/10/27 06:35:37;;;;;;;7.5;4.7;;;;;;;8.99;96.58887;947.596;;;;
2022/10/27 06:38:02;;;;;;;8.7;4.4;;;;;;;9.29;95.3125;947.5633;;;;
2022/10/27 06:40:33;;;;;;;5.1;3.4;;;;;;;9.58;93.72461;947.5449;;;;
2022/10/27 06:43:05;;;;;;;7.5;3.9;;;;;;;9.59;93.25;947.5659;;;;
2022/10/27 06:45:34;;;;;;;7.7;3.7;;;;;;;9.94;92.27734;947.537;;;;
2022/10/27 06:48:00;;;;;;;7.2;3.1;;;;;;;10.35;91.3252;947.6091;;;;
2022/10/27 06:50:25;;;;;;;6.9;3;;;;;;;10.61;88.73145;947.6192;;;;
2022/10/27 06:52:53;;;;;;;6.1;2.6;;;;;;;10.94;88.00977;947.6479;;;;
2022/10/27 06:55:25;;;;;;;4.9;2.7;;;;;;;11.3;86.22949;947.7195;;;;
2022/10/27 06:57:54;;;;;;;4.7;2.4;;;;;;;11.45;84.62207;947.7446;;;;
2022/10/27 07:00:19;;;;;;;5.6;2;;;;;;;11.72;82.37598;947.611;;;;
2022/10/27 07:02:47;;;;;;;7.7;2.8;;;;;;;12.06;81.71777;947.6509;;;;
2022/10/27 07:05:12;;;;;;;4.7;2.2;;;;;;;12.39;80.54199;947.7083;;;;
2022/10/27 07:07:40;;;;;;;6.5;3.6;;;;;;;12.6;80.16699;947.6835;;;;
2022/10/27 07:14:59;;;;;;;4.9;2.2;;;;;;;12.76;75.79004;947.6625;;;;
2022/10/27 07:17:25;;;;;;;3;1.7;;;;;;;12.41;76.81836;947.7054;;;;
2022/10/27 07:19:51;;;;;;;5.4;2.5;;;;;;;12.19;78.20117;947.7029;;;;
2022/10/27 07:22:16;;;;;;;6.6;3.1;;;;;;;12.19;79.74902;947.6359;;;;
2022/10/27 07:24:41;;;;;;;10.2;3.6;;;;;;;12.38;79.65723;947.6891;;;;
2022/10/27 07:27:09;;;;;;;9;3.9;;;;;;;12.45;78.87793;947.7408;;;;
2022/10/27 07:30:28;;;;;;;8;3.6;;;;;;;12.18;80.27441;947.7324;;;;
2022/10/27 07:32:53;;;;;;;8.6;3.5;;;;;;;12.17;80.42188;947.7553;;;;
2022/10/27 07:35:24;;;;;;;9.3;4.5;;;;;;;12.28;80.50879;947.6744;;;;
2022/10/27 07:38:50;;;;;;;13.8;6.1;;;;;;;12.43;80.92871;947.8069;;;;
2022/10/27 07:41:20;;;;;;;11.7;4.9;;;;;;;12.98;79.07813;947.7925;;;;
2022/10/27 07:43:44;;;;;;;7.6;4.3;;;;;;;13.43;76.16016;947.7659;;;;
2022/10/27 07:46:13;;;;;;;10;4;;;;;;;13.62;75.72168;947.7303;;;;
2022/10/27 07:48:41;;;;;;;5.5;3.2;;;;;;;13.43;75.81543;947.7891;;;;
2022/10/27 07:51:06;;;;;;;6;3.2;;;;;;;13.08;77.71777;947.7879;;;;
2022/10/27 07:53:34;;;;;;;4.7;3;;;;;;;12.69;79.4043;947.8098;;;;
2022/10/27 07:56:06;;;;;;;7.1;3.5;;;;;;;13.02;79.59082;947.8398;;;;
2022/10/27 07:59:10;;;;;;;5.7;3;;;;;;;13.44;76.51758;947.8589;;;;
2022/10/27 08:02:20;;;;;;;6;2.6;;;;;;;13.9;74.34375;947.8349;;;;
2022/10/27 08:04:48;;;;;;;7.5;4;;;;;;;14.66;74.01172;947.8267;;;;
2022/10/27 08:07:13;;;;;;;7.5;3.3;;;;;;;15.05;70.32813;947.8081;;;;
2022/10/27 08:09:42;;;;;;;7.8;2.7;;;;;;;15.82;68.79883;947.8592;;;;
2022/10/27 08:12:07;;;;;;;7.9;2.6;;;;;;;15.54;65.91406;947.8938;;;;
2022/10/27 08:14:33;;;;;;;4.3;2.3;;;;;;;15.36;66.625;947.9053;;;;
2022/10/27 08:16:58;;;;;;;2.5;1.7;;;;;;;15.36;67.71191;947.8547;;;;
2022/10/27 08:19:26;;;;;;;4.4;2;;;;;;;15.22;67.04297;947.8722;;;;
2022/10/27 08:21:51;;;;;;;5.6;2.1;;;;;;;15.31;67.45996;947.8897;;;;
2022/10/27 08:24:19;;;;;;;4.8;2;;;;;;;15.47;68.99902;947.8308;;;;
2022/10/27 08:26:44;;;;;;;2.8;1.6;;;;;;;15.42;66.09375;947.8201;;;;
2022/10/27 08:29:10;;;;;;;3.4;1.9;;;;;;;15.52;65.66992;947.8664;;;;
2022/10/27 08:31:35;;;;;;;5.4;1.4;;;;;;;15.91;65.0791;947.7978;;;;
2022/10/27 08:34:36;;;;;;;3.1;1.2;;;;;;;16.06;63.40234;947.8364;;;;
2022/10/27 08:37:05;;;;;;;2.6;1.3;;;;;;;16.09;61.70801;947.847;;;;
2022/10/27 08:39:30;;;;;;;2.1;1.4;;;;;;;16.19;60.22852;947.8215;;;;
2022/10/27 08:41:56;;;;;;;3.6;1.5;;;;;;;16.08;59.38086;947.8317;;;;
2022/10/27 08:45:00;;;;;;;3.7;1.4;;;;;;;16.14;58.55664;947.803;;;;
2022/10/27 08:47:25;;;;;;;3.4;1.6;;;;;;;16.57;58.12695;947.7991;;;;
2022/10/27 08:49:50;;;;;;;3.8;1.2;;;;;;;16.78;54.98145;947.7902;;;;
2022/10/27 08:52:17;;;;;;;3.3;1.2;;;;;;;17.12;55.66309;947.7177;;;;
2022/10/27 08:54:44;;;;;;;3.8;1.3;;;;;;;17.53;55.05176;947.6919;;;;
2022/10/27 08:57:09;;;;;;;4.1;1.3;;;;;;;17.55;53.1748;947.7418;;;;
2022/10/27 08:59:35;;;;;;;3.7;1.3;;;;;;;17.65;53.7334;947.6742;;;;
2022/10/27 09:01:59;;;;;;;2;1.2;;;;;;;17.61;53.82129;947.6708;;;;
2022/10/27 09:04:25;;;;;;;1.5;1.2;;;;;;;17.52;52.93945;947.6316;;;;
2022/10/27 09:06:50;;;;;;;5;1.2;;;;;;;17.69;53.77344;947.5326;;;;
2022/10/27 09:09:16;;;;;;;2.9;1.2;;;;;;;18.19;54.07715;947.5731;;;;
2022/10/27 09:11:41;;;;;;;4.4;1.4;;;;;;;18.56;54.42578;947.5555;;;;
2022/10/27 09:14:06;;;;;;;2.7;1.1;;;;;;;18.93;52.38867;947.519;;;;
2022/10/27 09:16:33;;;;;;;3.5;1;;;;;;;18.65;52.09863;947.5006;;;;
2022/10/27 09:18:58;;;;;;;3.1;1.4;;;;;;;18.69;51.61523;947.5358;;;;
2022/10/27 09:21:24;;;;;;;3.2;1.1;;;;;;;18.91;52.38574;947.4489;;;;
2022/10/27 09:23:49;;;;;;;4.7;1.3;;;;;;;18.74;53.64453;947.4628;;;;
2022/10/27 09:26:14;;;;;;;3.8;1.3;;;;;;;18.51;54.22266;947.4581;;;;
2022/10/27 09:28:39;;;;;;;5.3;1.6;;;;;;;18.29;54.18359;947.3858;;;;
2022/10/27 09:31:05;;;;;;;2.1;1;;;;;;;18.47;54.41504;947.3358;;;;
2022/10/27 09:33:31;;;;;;;4;1.3;;;;;;;18.78;53.11426;947.3907;;;;
2022/10/27 09:35:56;;;;;;;3.3;1.4;;;;;;;19.23;51.93457;947.366;;;;
2022/10/27 09:38:21;;;;;;;4.7;1.2;;;;;;;19.65;50.0127;947.3109;;;;
2022/10/27 09:40:51;;;;;;;3.1;1.3;;;;;;;19.97;48.47461;947.2961;;;;
2022/10/27 09:43:16;;;;;;;4.6;1.2;;;;;;;20.2;48.37207;947.2667;;;;
2022/10/27 09:45:48;;;;;;;3.6;1.5;;;;;;;20.07;47.92578;947.2823;;;;
2022/10/27 09:48:12;;;;;;;2.4;1;;;;;;;20;47.59082;947.261;;;;
2022/10/27 09:50:40;;;;;;;2.8;1.3;;;;;;;20.03;48.37695;947.3434;;;;
2022/10/27 09:53:05;;;;;;;2.8;1.2;;;;;;;19.89;49.35352;947.2324;;;;
2022/10/27 09:55:34;;;;;;;3.3;1.3;;;;;;;19.98;52.29102;947.2637;;;;
2022/10/27 09:57:59;;;;;;;2.8;1.2;;;;;;;19.79;51.33496;947.2714;;;;
2022/10/27 10:00:29;;;;;;;4.6;1.1;;;;;;;19.73;50.52344;947.2486;;;;
2022/10/27 10:02:55;;;;;;;2.7;1;;;;;;;19.67;48.51367;947.1838;;;;
2022/10/27 10:05:20;;;;;;;2.5;1.3;;;;;;;20.06;48.12305;947.1448;;;;
2022/10/27 10:07:45;;;;;;;2.9;1.1;;;;;;;20.57;47.31348;947.1945;;;;
2022/10/27 10:13:23;;;;;;;3.2;1.4;;;;;;;21.78;44.28027;947.0298;;;;
2022/10/27 10:15:48;;;;;;;3;1.2;;;;;;;22;43.50586;947.0889;;;;
2022/10/27 10:18:13;;;;;;;11.7;3.8;;;;;;;21.99;43.16504;947.0714;;;;
2022/10/27 10:20:40;;;;;;;2.4;1.5;;;;;;;21.65;41.28223;947.0089;;;;
2022/10/27 10:23:04;;;;;;;9.8;4.5;;;;;;;22.01;40.93945;947.0239;;;;
2022/10/27 10:25:29;;;;;;;14.8;6.3;;;;;;;22.26;40.86914;946.9487;;;;
2022/10/27 10:27:54;;;;;;;5;1.9;;;;;;;23.04;40.64746;946.9597;;;;
2022/10/27 10:30:22;;;;;;;11.3;6.6;;;;;;;23.5;38.54883;946.9949;;;;
2022/10/27 10:32:49;;;;;;;7.7;4;;;;;;;23.26;38.30469;946.965;;;;
2022/10/27 10:35:18;;;;;;;5.3;2.5;;;;;;;23.59;37.70898;946.8993;;;;
2022/10/27 10:37:49;;;;;;;5.4;2.5;;;;;;;23.45;37.37988;946.9726;;;;
2022/10/27 10:40:20;;;;;;;3.8;1.5;;;;;;;23.71;36.26074;946.9661;;;;
2022/10/27 10:42:45;;;;;;;2.2;1;;;;;;;23.55;35.78906;946.9766;;;;
2022/10/27 10:45:15;;;;;;;1.8;0.9;;;;;;;23.43;35.28516;946.9397;;;;
2022/10/27 10:47:40;;;;;;;2.9;1.1;;;;;;;23.65;36.98535;946.9117;;;;
2022/10/27 10:50:10;;;;;;;3.5;1;;;;;;;23.65;36.06836;946.8759;;;;
2022/10/27 10:52:40;;;;;;;3.5;1.8;;;;;;;23.8;37.04492;946.8572;;;;
2022/10/27 10:55:05;;;;;;;2.5;1;;;;;;;24.02;34.89746;946.9039;;;;
2022/10/27 10:57:30;;;;;;;3.6;1.6;;;;;;;24.13;36.21289;946.8409;;;;
2022/10/27 10:59:59;;;;;;;2;0.9;;;;;;;24.11;34.31445;946.848;;;;
2022/10/27 11:02:25;;;;;;;3.2;1;;;;;;;23.98;33.69238;946.8847;;;;
2022/10/27 11:04:50;;;;;;;2.2;1;;;;;;;23.79;33.63184;946.8256;;;;
2022/10/27 11:07:15;;;;;;;1.5;1;;;;;;;24.05;35.05273;946.7675;;;;
2022/10/27 11:09:40;;;;;;;1.8;0.9;;;;;;;24;35.61426;946.7059;;;;
2022/10/27 11:12:07;;;;;;;1.7;1;;;;;;;24.4;37.03516;946.7325;;;;
2022/10/27 11:14:34;;;;;;;2.5;1;;;;;;;24.7;33.9707;946.6203;;;;
2022/10/27 11:17:06;;;;;;;1.9;0.9;;;;;;;25.2;32.40332;946.5754;;;;
2022/10/27 11:19:30;;;;;;;2.4;1;;;;;;;25.89;32.71387;946.5334;;;;
2022/10/27 11:21:57;;;;;;;3.4;0.9;;;;;;;26.15;32.18945;946.5289;;;;
2022/10/27 11:24:24;;;;;;;2.6;1.1;;;;;;;26.25;30.52734;946.5287;;;;
2022/10/27 11:26:53;;;;;;;2.1;0.9;;;;;;;26.59;30.52637;946.5245;;;;
2022/10/27 11:29:18;;;;;;;2.7;0.9;;;;;;;26.46;29.82031;946.4933;;;;
2022/10/27 11:31:43;;;;;;;1.6;0.9;;;;;;;26.15;29.66895;946.4645;;;;
2022/10/27 11:34:08;;;;;;;1.6;1;;;;;;;26.9;29.66016;946.4117;;;;
2022/10/27 11:36:34;;;;;;;1.9;0.8;;;;;;;27.77;28.43457;946.4364;;;;
2022/10/27 11:38:59;;;;;;;1.4;0.8;;;;;;;28.47;27.79004;946.3881;;;;
2022/10/27 11:41:29;;;;;;;1.8;0.9;;;;;;;29.04;26.30078;946.4069;;;;
2022/10/27 11:43:59;;;;;;;1.9;1.1;;;;;;;31.03;25.35254;946.3577;;;;
2022/10/27 11:46:25;;;;;;;2.3;1.1;;;;;;;31.57;23.50293;946.377;;;;
2022/10/27 11:48:50;;;;;;;2.6;1.1;;;;;;;32.61;23.29297;946.3458;;;;
2022/10/27 11:51:16;;;;;;;2.5;0.8;;;;;;;33.92;22.13184;946.264;;;;
2022/10/27 11:53:41;;;;;;;3.2;1;;;;;;;34.73;20.9541;946.2424;;;;
2022/10/27 11:56:08;;;;;;;3.5;1.1;;;;;;;36.74;19.45996;946.1864;;;;
2022/10/27 11:58:33;;;;;;;2.3;1;;;;;;;37.1;19.00195;946.2368;;;;
2022/10/27 12:01:00;;;;;;;1.8;0.9;;;;;;;36.7;18.73145;946.198;;;;
2022/10/27 12:03:25;;;;;;;2.8;0.8;;;;;;;33.95;20.41309;946.1383;;;;
2022/10/27 12:05:51;;;;;;;3.2;0.9;;;;;;;30.94;23.70898;946.152;;;;
2022/10/27 12:08:19;;;;;;;1.8;0.8;;;;;;;30.22;25.16309;946.1217;;;;
2022/10/27 12:10:50;;;;;;;2.2;1.1;;;;;;;29.65;26.43164;946.1117;;;;
2022/10/27 12:13:15;;;;;;;2.4;0.8;;;;;;;31.34;24.16113;946.136;;;;
2022/10/27 12:15:43;;;;;;;1.4;0.8;;;;;;;32.91;22.11816;946.0404;;;;
2022/10/27 12:18:11;;;;;;;4;1.6;;;;;;;35.03;20.58203;946.1145;;;;
2022/10/27 12:20:38;;;;;;;1.2;0.7;;;;;;;35.45;19.74316;946.0546;;;;
2022/10/27 12:23:04;;;;;;;1.7;0.9;;;;;;;34.91;20.67285;946.0531;;;;
2022/10/27 12:25:29;;;;;;;1.8;0.8;;;;;;;32.33;22.72656;946.0318;;;;
2022/10/27 12:27:57;;;;;;;2.3;0.8;;;;;;;31.63;23.15918;946.0535;;;;
2022/10/27 12:30:20;;;;;;;1.7;0.9;;;;;;;30.26;24.47266;945.9728;;;;
2022/10/27 12:32:48;;;;;;;2;0.8;;;;;;;29.59;25.97461;946.0272;;;;
2022/10/27 12:35:13;;;;;;;1.2;0.8;;;;;;;32.51;23.39551;946.0072;;;;
2022/10/27 12:37:38;;;;;;;2;0.8;;;;;;;34.22;20.99023;946.019;;;;
2022/10/27 12:40:06;;;;;;;5.7;1.2;;;;;;;34.83;20.20996;945.9771;;;;
2022/10/27 12:42:32;;;;;;;3.3;1.1;;;;;;;35.12;20.3916;945.9978;;;;
2022/10/27 12:44:59;;;;;;;1.9;0.7;;;;;;;35.59;19.77246;945.9805;;;;
2022/10/27 12:47:25;;;;;;;1.4;0.8;;;;;;;33.5;21.37793;945.9492;;;;
2022/10/27 12:49:50;;;;;;;2.8;1;;;;;;;34.17;21.3252;945.9353;;;;
2022/10/27 12:52:15;;;;;;;2.2;1;;;;;;;34.59;20.62207;945.935;;;;
2022/10/27 12:54:41;;;;;;;2.8;1;;;;;;;35.03;20.33984;945.9504;;;;
2022/10/27 12:57:06;;;;;;;2.6;1;;;;;;;37.61;19.82422;945.9642;;;;
2022/10/27 12:59:31;;;;;;;1.2;0.8;;;;;;;36.07;19.31055;945.947;;;;
2022/10/27 13:01:56;;;;;;;1.5;0.9;;;;;;;35.91;19.78711;945.9052;;;;
2022/10/27 13:04:21;;;;;;;2.8;1;;;;;;;35.29;20.91895;945.8929;;;;
2022/10/27 13:06:46;;;;;;;3.9;1.8;;;;;;;32.27;22.8916;945.7989;;;;
2022/10/27 13:09:12;;;;;;;2.8;1.1;;;;;;;30.68;24.7832;945.7886;;;;
2022/10/27 13:11:37;;;;;;;3.6;1.2;;;;;;;29.17;26.58301;945.7751;;;;
2022/10/27 13:14:02;;;;;;;2.1;1;;;;;;;27.9;28.22949;945.7636;;;;
2022/10/27 13:16:28;;;;;;;1.2;0.8;;;;;;;26.91;30.77441;945.7141;;;;
2022/10/27 13:18:54;;;;;;;2;1.1;;;;;;;26.52;30.90137;945.7134;;;;
2022/10/27 13:21:21;;;;;;;2.2;0.9;;;;;;;26.14;31.25293;945.7456;;;;
2022/10/27 13:23:46;;;;;;;2;0.7;;;;;;;26.17;33.18457;945.7067;;;;
2022/10/27 13:26:11;;;;;;;1.5;0.8;;;;;;;27.95;30.44141;945.7316;;;;
2022/10/27 13:28:36;;;;;;;3;1;;;;;;;27.87;29.5459;945.7231;;;;
2022/10/27 13:31:01;;;;;;;3.5;1.2;;;;;;;27.93;30;945.6902;;;;
2022/10/27 13:33:29;;;;;;;4.7;1.4;;;;;;;29.35;29.69043;945.6861;;;;
2022/10/27 13:35:54;;;;;;;2.8;1;;;;;;;32;25.38281;945.7194;;;;
2022/10/27 13:38:20;;;;;;;3.8;1.3;;;;;;;32.24;24.28027;945.7134;;;;
2022/10/27 13:40:46;;;;;;;3.7;1.3;;;;;;;32.76;23.2168;945.7498;;;;
2022/10/27 13:43:11;;;;;;;4.2;1.5;;;;;;;34.53;22.04102;945.764;;;;
2022/10/27 13:45:38;;;;;;;3.2;1.4;;;;;;;34.72;22.29199;945.7147;;;;
2022/10/27 13:48:02;;;;;;;2;1.1;;;;;;;35.49;20.91602;945.7913;;;;
2022/10/27 13:50:27;;;;;;;4.3;1.1;;;;;;;35.13;21.21387;945.8228;;;;
2022/10/27 13:52:54;;;;;;;2;1;;;;;;;32.28;23;945.7283;;;;
2022/10/27 13:55:22;;;;;;;1.6;1;;;;;;;32.67;23.30762;945.7508;;;;
2022/10/27 13:57:47;;;;;;;3.6;1.1;;;;;;;34.76;21.99219;945.7678;;;;
2022/10/27 14:00:20;;;;;;;1.9;1.2;;;;;;;33.79;21.89648;945.7473;;;;
2022/10/27 14:02:45;;;;;;;1.5;0.7;;;;;;;34.06;21.89746;945.7551;;;;
2022/10/27 14:05:10;;;;;;;1.9;1.2;;;;;;;33.35;22.14063;945.7356;;;;
2022/10/27 14:07:41;;;;;;;1.3;1;;;;;;;33.6;22.35645;945.7285;;;;
2022/10/27 14:10:06;;;;;;;1.1;0.7;;;;;;;33.54;22.25781;945.6992;;;;
2022/10/27 14:12:35;;;;;;;2.6;1.1;;;;;;;34.45;22.60352;945.6624;;;;
2022/10/27 14:15:48;;;;;;;3.1;1.2;;;;;;;34.99;21.95508;945.7533;;;;
2022/10/27 14:19:11;;;;;;;3.3;1;;;;;;;33.72;23.74609;945.704;;;;
2022/10/27 14:21:37;;;;;;;1.2;0.9;;;;;;;33.85;23.28418;945.7332;;;;
2022/10/27 14:26:29;;;;;;;1;0.8;;;;;;;34.15;23.34766;945.6914;;;;
2022/10/27 14:28:54;;;;;;;2.8;1;;;;;;;34.85;23.7334;945.7672;;;;
2022/10/27 14:31:19;;;;;;;5;1.1;;;;;;;35.41;24.10059;945.7673;;;;
2022/10/27 14:33:44;;;;;;;3.3;1.1;;;;;;;35.37;24.19434;945.7583;;;;
2022/10/27 14:36:10;;;;;;;2.4;1.1;;;;;;;35.25;24.12695;945.7491;;;;
2022/10/27 14:38:39;;;;;;;2;0.8;;;;;;;35.64;23.68945;945.8279;;;;
2022/10/27 14:41:04;;;;;;;2.3;1.1;;;;;;;35.72;24.30957;945.8876;;;;
2022/10/27 14:43:30;;;;;;;4;1.1;;;;;;;35.06;25.05859;945.8017;;;;
2022/10/27 14:49:31;;;;;;;3.8;1.1;;;;;;;33.96;25.55176;945.8619;;;;
2022/10/27 14:51:58;;;;;;;2;0.9;;;;;;;33.61;25.66504;945.8883;;;;
2022/10/27 14:54:27;;;;;;;2;1.1;;;;;;;33.55;26.56348;945.9375;;;;
2022/10/27 14:56:52;;;;;;;2.5;1.6;;;;;;;33.45;27.60352;945.9061;;;;
2022/10/27 14:59:17;;;;;;;3.2;1.3;;;;;;;33.2;27.73242;945.9637;;;;
2022/10/27 15:01:48;;;;;;;1.5;1;;;;;;;32.3;28.48145;945.983;;;;
2022/10/27 15:04:14;;;;;;;3.1;0.9;;;;;;;30.92;30.49902;945.9302;;;;
2022/10/27 15:06:39;;;;;;;2.1;1;;;;;;;28.96;33.77148;945.957;;;;
2022/10/27 15:09:04;;;;;;;5.3;1;;;;;;;27.57;36.08887;945.9598;;;;
2022/10/27 15:11:32;;;;;;;3.3;1.4;;;;;;;25.83;39.38867;945.9447;;;;
2022/10/27 15:13:57;;;;;;;3;1.2;;;;;;;24.6;42.00293;945.9667;;;;
2022/10/27 15:16:22;;;;;;;4.3;1.5;;;;;;;24.13;43.25488;945.965;;;;
2022/10/27 15:18:49;;;;;;;3.1;1.4;;;;;;;23.8;44.30664;946.0256;;;;
2022/10/27 15:21:15;;;;;;;3;1.3;;;;;;;23.46;45.47168;946.0283;;;;
2022/10/27 15:23:41;;;;;;;4.2;1.2;;;;;;;22.72;47.52051;946.0952;;;;
2022/10/27 15:26:09;;;;;;;4.9;1.6;;;;;;;22.27;48.93848;946.0625;;;;
2022/10/27 15:28:35;;;;;;;5.1;1.5;;;;;;;22.05;49.53516;946.1572;;;;
2022/10/27 15:30:59;;;;;;;3.5;1.4;;;;;;;21.87;50.03027;946.1517;;;;
2022/10/27 15:33:24;;;;;;;5.4;1.5;;;;;;;21.69;51.11133;946.1512;;;;
2022/10/27 15:35:53;;;;;;;6.8;1.7;;;;;;;21.43;52.28711;946.2186;;;;
2022/10/27 15:38:18;;;;;;;5;1.7;;;;;;;21.24;52.8623;946.2316;;;;
2022/10/27 15:40:49;;;;;;;4;1.8;;;;;;;21.01;53.79297;946.2342;;;;
2022/10/27 15:43:20;;;;;;;6.5;2.2;;;;;;;20.77;54.50098;946.2989;;;;
2022/10/27 15:45:51;;;;;;;5.6;1.5;;;;;;;20.48;54.80371;946.2726;;;;
2022/10/27 15:48:18;;;;;;;3.3;1.4;;;;;;;20.19;55.17578;946.3571;;;;
2022/10/27 15:50:43;;;;;;;2.6;1;;;;;;;19.97;55.35742;946.3567;;;;
2022/10/27 15:53:08;;;;;;;4.4;1;;;;;;;19.79;56.10547;946.3734;;;;
2022/10/27 15:55:33;;;;;;;2.8;1.3;;;;;;;19.71;56.7832;946.3898;;;;
2022/10/27 15:58:00;;;;;;;4.8;2.1;;;;;;;19.58;57.98926;946.3895;;;;
2022/10/27 16:00:29;;;;;;;8.2;3.2;;;;;;;19.42;59.13477;946.4475;;;;
2022/10/27 16:02:59;;;;;;;3.9;1.8;;;;;;;19.28;60.51465;946.4609;;;;
2022/10/27 16:05:23;;;;;;;6.6;1.5;;;;;;;18.97;61.54199;946.4838;;;;
2022/10/27 16:07:48;;;;;;;5.5;1.7;;;;;;;18.79;61.66895;946.4964;;;;
2022/10/27 16:10:16;;;;;;;6.7;2.7;;;;;;;18.73;62.11426;946.5019;;;;
2022/10/27 16:12:42;;;;;;;6.7;3.2;;;;;;;18.73;61.7168;946.493;;;;
2022/10/27 16:15:12;;;;;;;8.4;3.4;;;;;;;18.68;61.53613;946.4506;;;;
2022/10/27 16:18:10;;;;;;;8.2;3.1;;;;;;;18.59;62.08105;946.5009;;;;
2022/10/27 16:21:00;;;;;;;6.6;2.1;;;;;;;18.35;63.15332;946.5524;;;;
2022/10/27 16:23:25;;;;;;;6.4;2.3;;;;;;;18.17;63.58008;946.5614;;;;
2022/10/27 16:26:26;;;;;;;6.3;2.5;;;;;;;17.98;63.33105;946.5881;;;;
2022/10/27 16:28:51;;;;;;;5.2;2.8;;;;;;;17.83;63.14746;946.5873;;;;